Funchalense 5 — CSKN — position and weather

sailwx.info

Track history (hours):
 
Tides and Currents Weather Stations Pressure Air Temp Water Temp Dewpoint Dewpoint Depression Visibility Wind Speed Wind Dir Waves Ship Positions

Funchalense 5

Last reported at 2016-Dec-04 00:33 UTC. Time now 2016-Dec-07 16:26 UTC.
Position N 38°15' W 009°57'.

Length 127 m; draft 7.6 m.

Type: Ship. MMSI: 255804250.

Date/timePositionNaut miles runAvg speedWind from/ knotsBaromVisibWave heightAir tempDewpointWater temp
2016-Dec-04 00:33N 38°15' W 009°57'1413.8
2016-Dec-03 23:33N 38°24' W 009°43'1514.8
2016-Dec-03 22:33N 38°33' W 009°28'1514.5
2016-Dec-03 21:32N 38°41' W 009°12'4 0.3
2016-Dec-03 07:28N 38°43' W 009°07'9 9.5
2016-Dec-03 06:30N 38°40' W 009°18'1314.0
2016-Dec-03 05:32N 38°39' W 009°36'1312.9
2016-Dec-03 04:33N 38°49' W 009°44'1615.6
2016-Dec-03 03:33N 39°05' W 009°45'  
2016-Nov-27 00:32N 38°16' W 009°55'1616.0
2016-Nov-26 23:33N 38°26' W 009°40'1615.8
2016-Nov-26 22:33N 38°36' W 009°24'1313.2
2016-Nov-26 21:33N 38°42' W 009°09'2 1.7
2016-Nov-26 20:19N 38°43' W 009°07'0 0.0
2016-Nov-26 19:25N 38°43' W 009°07'0 0.1
2016-Nov-26 18:33N 38°43' W 009°07'0 0.0
2016-Nov-26 17:33N 38°43' W 009°07'0 0.0
2016-Nov-26 16:23N 38°43' W 009°07'0 0.0
2016-Nov-26 15:29N 38°43' W 009°07'0 0.0
2016-Nov-26 14:20N 38°43' W 009°07'0 0.0
2016-Nov-26 12:16N 38°43' W 009°07'0 0.0
2016-Nov-26 11:33N 38°43' W 009°07'0 0.0
2016-Nov-26 10:33N 38°43' W 009°07'0 0.0
2016-Nov-26 09:33N 38°43' W 009°07'0 0.0
2016-Nov-26 08:32N 38°43' W 009°07'0 0.0
2016-Nov-26 07:33N 38°43' W 009°07'1110.7
2016-Nov-26 06:33N 38°39' W 009°19'1414.0
2016-Nov-26 05:33N 38°39' W 009°37'1313.4
2016-Nov-26 04:33N 38°51' W 009°44'1515.4
2016-Nov-26 03:33N 39°06' W 009°44'1514.9
2016-Nov-26 02:31N 39°22' W 009°45'  
Track history (hours):
 
Tides and Currents Weather Stations Pressure Air Temp Water Temp Dewpoint Dewpoint Depression Visibility Wind Speed Wind Dir Waves Ship Positions

Funchalense 5

Last reported at 2016-Dec-04 00:33 UTC. Time now 2016-Dec-07 16:26 UTC.
Position N 38°15' W 009°57'.

Length 127 m; draft 7.6 m.

Type: Ship. MMSI: 255804250.

Date/timePositionNaut miles runAvg speedWind from/ knotsBaromVisibWave heightAir tempDewpointWater temp
2016-Dec-04 00:33N 38°15' W 009°57'1413.8
2016-Dec-03 23:33N 38°24' W 009°43'1514.8
2016-Dec-03 22:33N 38°33' W 009°28'1514.5
2016-Dec-03 21:32N 38°41' W 009°12'4 0.3
2016-Dec-03 07:28N 38°43' W 009°07'9 9.5
2016-Dec-03 06:30N 38°40' W 009°18'1314.0
2016-Dec-03 05:32N 38°39' W 009°36'1312.9
2016-Dec-03 04:33N 38°49' W 009°44'1615.6
2016-Dec-03 03:33N 39°05' W 009°45'  
2016-Nov-27 00:32N 38°16' W 009°55'1616.0
2016-Nov-26 23:33N 38°26' W 009°40'1615.8
2016-Nov-26 22:33N 38°36' W 009°24'1313.2
2016-Nov-26 21:33N 38°42' W 009°09'2 1.7
2016-Nov-26 20:19N 38°43' W 009°07'0 0.0
2016-Nov-26 19:25N 38°43' W 009°07'0 0.1
2016-Nov-26 18:33N 38°43' W 009°07'0 0.0
2016-Nov-26 17:33N 38°43' W 009°07'0 0.0
2016-Nov-26 16:23N 38°43' W 009°07'0 0.0
2016-Nov-26 15:29N 38°43' W 009°07'0 0.0
2016-Nov-26 14:20N 38°43' W 009°07'0 0.0
2016-Nov-26 12:16N 38°43' W 009°07'0 0.0
2016-Nov-26 11:33N 38°43' W 009°07'0 0.0
2016-Nov-26 10:33N 38°43' W 009°07'0 0.0
2016-Nov-26 09:33N 38°43' W 009°07'0 0.0
2016-Nov-26 08:32N 38°43' W 009°07'0 0.0
2016-Nov-26 07:33N 38°43' W 009°07'1110.7
2016-Nov-26 06:33N 38°39' W 009°19'1414.0
2016-Nov-26 05:33N 38°39' W 009°37'1313.4
2016-Nov-26 04:33N 38°51' W 009°44'1515.4
2016-Nov-26 03:33N 39°06' W 009°44'1514.9
2016-Nov-26 02:31N 39°22' W 009°45'  

Dump ship's entire track history